Flight Track Log - Related Links

Times and Time Zones

All times are in EDT time to prevent confusion due to time zone crossing. See the ASQ4179 flight status page for this flight to view local times or setup timezone preferences in your user account.

Time Position Orientation Groundspeed Altitude Reporting Facility
EDT Latitude Longitude Course Direction KTS MPH feet Rate Location/Type
Sun 07:04:39 AM 37.4833 -77.3000 38° Northeast 170 196 1,100  Level Potomac TRACON
Sun 07:05:02 AM 37.4775 -77.2719 105° East 173 199 1,900 2,182 Climbing Washington Center
Sun 07:07:00 AM 37.6704 -77.1296 38° Northeast  Level FlightAware Approximate
Sun 07:07:02 AM 37.5356 -77.1397 61° Northeast 209 241 6,300  Level Washington Center
Sun 07:08:00 AM 37.7296 -77.0704 38° Northeast  Level FlightAware Approximate
Sun 07:08:01 AM 37.5697 -77.0592 62° Northeast 234 269 8,400  Level Washington Center
Sun 07:09:00 AM 37.7888 -77.0112 38° Northeast  Level FlightAware Approximate
Sun 07:09:02 AM 37.6083 -76.9708 61° Northeast 262 302 10,500  Level Washington Center
Sun 07:10:02 AM 37.6511 -76.8797 59° Northeast 285 328 11,800 1,271 Climbing Washington Center
Sun 07:11:00 AM 37.6961 -76.7728 62° Northeast 313 360 13,000 1,271 Climbing Washington Center
Sun 07:12:00 AM 37.7697 -76.6900 42° Northeast 343 395 14,300 1,261 Climbing Washington Center
Sun 07:12:59 AM 37.8681 -76.6756 North 322 371 15,500 1,200 Climbing Washington Center
Sun 07:14:00 AM 37.9603 -76.6189 26° Northeast 339 390 16,700 732 Climbing Washington Center
Sun 07:15:02 AM 38.0547 -76.5569 27° Northeast 354 407 17,000 150 Climbing Washington Center
Sun 07:16:00 AM 38.1469 -76.4947 28° Northeast 367 422 17,000  Level Washington Center
Sun 07:17:02 AM 38.2392 -76.4325 28° Northeast 367 422 17,000  Level Washington Center
Sun 07:18:02 AM 38.3247 -76.3989 17° North 366 421 17,000  Level Washington Center
Sun 07:19:00 AM 38.4272 -76.3789 North 356 410 17,000  Level Washington Center
Sun 07:20:02 AM 38.5314 -76.3586 North 367 422 17,000  Level Washington Center
Sun 07:20:59 AM 38.6339 -76.3383 North 373 429 17,000  Level Washington Center
Sun 07:21:59 AM 38.7403 -76.3183 North 378 435 17,000  Level Washington Center
Sun 07:23:00 AM 38.8444 -76.2981 North 378 435 17,000  Level Washington Center
Sun 07:24:01 AM 38.9511 -76.2775 North 378 435 17,000 -50 Level Washington Center
Sun 07:25:00 AM 39.0553 -76.2597 North 378 435 16,900 -50 Descending Washington Center
Sun 07:26:00 AM 39.1556 -76.2206 17° North 378 435 16,900  Level Washington Center
Sun 07:27:01 AM 39.2497 -76.1222 39° Northeast 367 422 16,900  Level Washington Center
Sun 07:28:02 AM 39.3253 -76.0289 44° Northeast 372 428 16,900  Level Washington Center
Sun 07:29:00 AM 39.4025 -75.9381 42° Northeast 372 428 16,900  Level Washington Center
Sun 07:30:00 AM 39.4819 -75.8417 43° Northeast 372 428 16,900  Level Washington Center
Sun 07:31:00 AM 39.5614 -75.7503 42° Northeast 372 428 16,900  Level Washington Center
Sun 07:32:01 AM 39.6386 -75.6589 42° Northeast 372 428 16,900  Level Washington Center
Sun 07:32:59 AM 39.7156 -75.5644 43° Northeast 372 428 16,900 50 Level Washington Center
Sun 07:34:00 AM 39.7928 -75.4700 43° Northeast 372 428 17,000 -639 Climbing Washington Center
Sun 07:35:01 AM 39.8717 -75.3778 42° Northeast 372 428 15,600 -1,672 Descending Washington Center
Sun 07:36:02 AM 39.9486 -75.2856 43° Northeast 367 422 13,600 -1,983 Descending Washington Center
Sun 07:36:59 AM 40.0192 -75.1986 43° Northeast 367 422 11,700 -915 Descending Washington Center
Sun 07:38:46 AM 40.1333 -75.0500 45° Northeast 301 346 11,100 -832 Descending New York TRACON
Sun 07:39:52 AM 40.2000 -74.9667 44° Northeast 286 329 9,300 -1,364 Descending New York TRACON
Sun 07:40:58 AM 40.2667 -74.9000 37° Northeast 272 313 8,100 -825 Descending New York TRACON
Sun 07:42:00 AM 40.3241 -74.7846 45° Northeast  Level FlightAware Approximate
Sun 07:43:52 AM 40.4000 -74.7000 114° Southeast 265 305 6,000  Level New York TRACON
Sun 07:45:00 AM 40.4652 -74.5824 49° Northeast  Level Estimated
Sun 07:48:58 AM 40.7333 -74.5000 114° Southeast 261 300 5,100  Level New York TRACON
Sun 07:49:00 AM 40.6833 -74.1667 114° Southeast  Level FlightAware Approximate
Sun 07:49:58 AM 40.7833 -74.4333 45° Northeast 258 297 4,200  Level New York TRACON
Sun 07:50:58 AM 40.8333 -74.3500 52° Northeast 267 307 4,100 -56 Descending New York TRACON
Sun 07:51:46 AM 40.8333 -74.2833 90° East 268 308 4,100 -533 Level New York TRACON
Sun 07:52:00 AM 40.6833 -74.1667 114° Southeast  Level FlightAware Approximate
Sun 07:53:00 AM 40.6925 -74.1687 114° Southeast  Level Estimated
Sun 07:53:58 AM 40.8000 -74.1167 105° East 211 243 2,500  Level New York TRACON
Sun 07:54:00 AM 40.6925 -74.1687 114° Southeast  Level Estimated

Login

Don't have an account? Register now (free) for customized features, flight alerts, and more!